sensor_id;sensor_type;location;lat;lon;timestamp;temperature;humidity
11812;DHT22;5963;50.184;9.162;2023-05-23T00:00:57;15.80;99.90
11812;DHT22;5963;50.184;9.162;2023-05-23T00:03:28;15.90;99.90
11812;DHT22;5963;50.184;9.162;2023-05-23T00:05:59;16.00;99.90
11812;DHT22;5963;50.184;9.162;2023-05-23T00:08:29;16.00;99.90
11812;DHT22;5963;50.184;9.162;2023-05-23T00:11:00;16.10;99.90
11812;DHT22;5963;50.184;9.162;2023-05-23T00:13:30;16.20;99.90
11812;DHT22;5963;50.184;9.162;2023-05-23T00:16:02;16.20;99.90
11812;DHT22;5963;50.184;9.162;2023-05-23T00:18:32;16.10;99.90
11812;DHT22;5963;50.184;9.162;2023-05-23T00:21:00;16.00;99.90
11812;DHT22;5963;50.184;9.162;2023-05-23T00:23:29;15.90;99.90
11812;DHT22;5963;50.184;9.162;2023-05-23T00:26:02;16.00;99.90
11812;DHT22;5963;50.184;9.162;2023-05-23T00:28:32;16.00;99.90
11812;DHT22;5963;50.184;9.162;2023-05-23T00:31:02;16.10;99.90
11812;DHT22;5963;50.184;9.162;2023-05-23T00:33:32;15.90;99.90
11812;DHT22;5963;50.184;9.162;2023-05-23T00:36:02;15.90;99.90
11812;DHT22;5963;50.184;9.162;2023-05-23T00:38:32;15.80;99.90
11812;DHT22;5963;50.184;9.162;2023-05-23T00:41:03;15.60;99.90
11812;DHT22;5963;50.184;9.162;2023-05-23T00:43:33;15.50;99.90
11812;DHT22;5963;50.184;9.162;2023-05-23T00:46:03;15.40;99.90
11812;DHT22;5963;50.184;9.162;2023-05-23T00:51:02;15.40;99.90
11812;DHT22;5963;50.184;9.162;2023-05-23T00:53:32;15.40;99.90
11812;DHT22;5963;50.184;9.162;2023-05-23T00:56:04;15.50;99.90
11812;DHT22;5963;50.184;9.162;2023-05-23T00:58:34;15.40;99.90
11812;DHT22;5963;50.184;9.162;2023-05-23T01:01:04;15.40;99.90
11812;DHT22;5963;50.184;9.162;2023-05-23T01:03:34;15.30;99.90
11812;DHT22;5963;50.184;9.162;2023-05-23T01:06:05;15.30;99.90
11812;DHT22;5963;50.184;9.162;2023-05-23T01:08:33;15.20;99.90
11812;DHT22;5963;50.184;9.162;2023-05-23T01:11:10;15.30;99.90
11812;DHT22;5963;50.184;9.162;2023-05-23T01:13:44;15.40;99.90
11812;DHT22;5963;50.184;9.162;2023-05-23T01:16:20;15.30;99.90
11812;DHT22;5963;50.184;9.162;2023-05-23T01:19:00;15.30;99.90
11812;DHT22;5963;50.184;9.162;2023-05-23T01:21:33;15.20;99.90
11812;DHT22;5963;50.184;9.162;2023-05-23T01:24:21;15.20;99.90
11812;DHT22;5963;50.184;9.162;2023-05-23T01:27:04;15.20;99.90
11812;DHT22;5963;50.184;9.162;2023-05-23T01:29:41;15.30;99.90
11812;DHT22;5963;50.184;9.162;2023-05-23T01:32:13;15.40;99.90
11812;DHT22;5963;50.184;9.162;2023-05-23T01:34:44;15.50;99.90
11812;DHT22;5963;50.184;9.162;2023-05-23T01:37:15;15.60;99.90
11812;DHT22;5963;50.184;9.162;2023-05-23T01:39:47;15.60;99.90
11812;DHT22;5963;50.184;9.162;2023-05-23T01:42:16;15.60;99.90
11812;DHT22;5963;50.184;9.162;2023-05-23T01:44:48;15.60;99.90
11812;DHT22;5963;50.184;9.162;2023-05-23T01:47:19;15.60;99.90
11812;DHT22;5963;50.184;9.162;2023-05-23T01:49:49;15.60;99.90
11812;DHT22;5963;50.184;9.162;2023-05-23T01:52:21;15.50;99.90
11812;DHT22;5963;50.184;9.162;2023-05-23T01:54:52;15.60;99.90
11812;DHT22;5963;50.184;9.162;2023-05-23T01:57:22;15.60;99.90
11812;DHT22;5963;50.184;9.162;2023-05-23T01:59:54;15.60;99.90
11812;DHT22;5963;50.184;9.162;2023-05-23T02:02:24;15.50;99.90
11812;DHT22;5963;50.184;9.162;2023-05-23T02:04:54;15.50;99.90
11812;DHT22;5963;50.184;9.162;2023-05-23T02:07:25;15.50;99.90
11812;DHT22;5963;50.184;9.162;2023-05-23T02:09:55;15.40;99.90
11812;DHT22;5963;50.184;9.162;2023-05-23T02:12:24;15.30;99.90
11812;DHT22;5963;50.184;9.162;2023-05-23T02:14:56;15.30;99.90
11812;DHT22;5963;50.184;9.162;2023-05-23T02:17:25;15.30;99.90
11812;DHT22;5963;50.184;9.162;2023-05-23T02:19:55;15.30;99.90
11812;DHT22;5963;50.184;9.162;2023-05-23T02:22:25;15.30;99.90
11812;DHT22;5963;50.184;9.162;2023-05-23T02:24:55;15.10;99.90
11812;DHT22;5963;50.184;9.162;2023-05-23T02:27:25;15.20;99.90
11812;DHT22;5963;50.184;9.162;2023-05-23T02:29:56;15.30;99.90
11812;DHT22;5963;50.184;9.162;2023-05-23T02:32:26;15.30;99.90
11812;DHT22;5963;50.184;9.162;2023-05-23T02:34:57;15.40;99.90
11812;DHT22;5963;50.184;9.162;2023-05-23T02:37:26;15.50;99.90
11812;DHT22;5963;50.184;9.162;2023-05-23T02:39:57;15.60;99.90
11812;DHT22;5963;50.184;9.162;2023-05-23T02:42:27;15.70;99.90
11812;DHT22;5963;50.184;9.162;2023-05-23T02:44:58;15.60;99.90
11812;DHT22;5963;50.184;9.162;2023-05-23T02:47:27;15.50;99.90
11812;DHT22;5963;50.184;9.162;2023-05-23T02:49:57;15.40;99.90
11812;DHT22;5963;50.184;9.162;2023-05-23T02:52:27;15.40;99.90
11812;DHT22;5963;50.184;9.162;2023-05-23T02:54:57;15.40;99.90
11812;DHT22;5963;50.184;9.162;2023-05-23T02:57:27;15.50;99.90
11812;DHT22;5963;50.184;9.162;2023-05-23T02:59:58;15.40;99.90
11812;DHT22;5963;50.184;9.162;2023-05-23T03:02:28;15.30;99.90
11812;DHT22;5963;50.184;9.162;2023-05-23T03:04:58;15.30;99.90
11812;DHT22;5963;50.184;9.162;2023-05-23T03:07:28;15.30;99.90
11812;DHT22;5963;50.184;9.162;2023-05-23T03:09:58;15.20;99.90
11812;DHT22;5963;50.184;9.162;2023-05-23T03:12:28;15.10;99.90
11812;DHT22;5963;50.184;9.162;2023-05-23T03:14:59;15.00;99.90
11812;DHT22;5963;50.184;9.162;2023-05-23T03:17:29;15.00;99.90
11812;DHT22;5963;50.184;9.162;2023-05-23T03:19:59;15.00;99.90
11812;DHT22;5963;50.184;9.162;2023-05-23T03:22:29;15.10;99.90
11812;DHT22;5963;50.184;9.162;2023-05-23T03:24:59;15.10;99.90
11812;DHT22;5963;50.184;9.162;2023-05-23T03:27:28;15.20;99.90
11812;DHT22;5963;50.184;9.162;2023-05-23T03:29:59;15.30;99.90
11812;DHT22;5963;50.184;9.162;2023-05-23T03:32:29;15.30;99.90
11812;DHT22;5963;50.184;9.162;2023-05-23T03:34:59;15.30;99.90
11812;DHT22;5963;50.184;9.162;2023-05-23T03:37:29;15.40;99.90
11812;DHT22;5963;50.184;9.162;2023-05-23T03:39:59;15.40;99.90
11812;DHT22;5963;50.184;9.162;2023-05-23T03:42:29;15.30;99.90
11812;DHT22;5963;50.184;9.162;2023-05-23T03:45:00;15.40;99.90
11812;DHT22;5963;50.184;9.162;2023-05-23T03:47:29;15.50;99.90
11812;DHT22;5963;50.184;9.162;2023-05-23T03:50:01;15.50;99.90
11812;DHT22;5963;50.184;9.162;2023-05-23T03:52:31;15.60;99.90
11812;DHT22;5963;50.184;9.162;2023-05-23T03:55:00;15.60;99.90
11812;DHT22;5963;50.184;9.162;2023-05-23T03:57:30;15.60;99.90
11812;DHT22;5963;50.184;9.162;2023-05-23T04:00:02;15.60;99.90
11812;DHT22;5963;50.184;9.162;2023-05-23T04:02:33;15.60;99.90
11812;DHT22;5963;50.184;9.162;2023-05-23T04:05:05;15.50;99.90
11812;DHT22;5963;50.184;9.162;2023-05-23T04:07:35;15.60;99.90
11812;DHT22;5963;50.184;9.162;2023-05-23T04:10:07;15.60;99.90
11812;DHT22;5963;50.184;9.162;2023-05-23T04:12:37;15.60;99.90
11812;DHT22;5963;50.184;9.162;2023-05-23T04:15:11;15.60;99.90
11812;DHT22;5963;50.184;9.162;2023-05-23T04:17:41;15.60;99.90
11812;DHT22;5963;50.184;9.162;2023-05-23T04:20:11;15.60;99.90
11812;DHT22;5963;50.184;9.162;2023-05-23T04:22:39;15.70;99.90
11812;DHT22;5963;50.184;9.162;2023-05-23T04:25:09;15.70;99.90
11812;DHT22;5963;50.184;9.162;2023-05-23T04:27:39;15.60;99.90
11812;DHT22;5963;50.184;9.162;2023-05-23T04:30:12;15.60;99.90
11812;DHT22;5963;50.184;9.162;2023-05-23T04:32:45;15.70;99.90
11812;DHT22;5963;50.184;9.162;2023-05-23T04:35:15;15.70;99.90
11812;DHT22;5963;50.184;9.162;2023-05-23T04:37:45;15.70;99.90
11812;DHT22;5963;50.184;9.162;2023-05-23T04:40:15;15.60;99.90
11812;DHT22;5963;50.184;9.162;2023-05-23T04:42:45;15.50;99.90
11812;DHT22;5963;50.184;9.162;2023-05-23T04:45:17;15.50;99.90
11812;DHT22;5963;50.184;9.162;2023-05-23T04:47:46;15.60;99.90
11812;DHT22;5963;50.184;9.162;2023-05-23T04:50:17;15.70;99.90
11812;DHT22;5963;50.184;9.162;2023-05-23T04:52:49;15.70;99.90
11812;DHT22;5963;50.184;9.162;2023-05-23T04:55:19;15.60;99.90
11812;DHT22;5963;50.184;9.162;2023-05-23T04:57:49;15.50;99.90
11812;DHT22;5963;50.184;9.162;2023-05-23T05:00:20;15.50;99.90
11812;DHT22;5963;50.184;9.162;2023-05-23T05:02:50;15.40;99.90
11812;DHT22;5963;50.184;9.162;2023-05-23T05:05:20;15.40;99.90
11812;DHT22;5963;50.184;9.162;2023-05-23T05:07:50;15.50;99.90
11812;DHT22;5963;50.184;9.162;2023-05-23T05:10:21;15.50;99.90
11812;DHT22;5963;50.184;9.162;2023-05-23T05:12:50;15.50;99.90
11812;DHT22;5963;50.184;9.162;2023-05-23T05:15:20;15.50;99.90
11812;DHT22;5963;50.184;9.162;2023-05-23T05:17:50;15.50;99.90
11812;DHT22;5963;50.184;9.162;2023-05-23T05:20:21;15.40;99.90
11812;DHT22;5963;50.184;9.162;2023-05-23T05:22:56;15.50;99.90
11812;DHT22;5963;50.184;9.162;2023-05-23T05:25:26;15.60;99.90
11812;DHT22;5963;50.184;9.162;2023-05-23T05:27:59;15.60;99.90
11812;DHT22;5963;50.184;9.162;2023-05-23T05:30:32;15.60;99.90
11812;DHT22;5963;50.184;9.162;2023-05-23T05:33:02;15.70;99.90
11812;DHT22;5963;50.184;9.162;2023-05-23T05:35:33;15.70;99.90
11812;DHT22;5963;50.184;9.162;2023-05-23T05:41:50;15.70;99.90
11812;DHT22;5963;50.184;9.162;2023-05-23T05:44:19;15.70;99.90
11812;DHT22;5963;50.184;9.162;2023-05-23T05:46:50;15.70;99.90
11812;DHT22;5963;50.184;9.162;2023-05-23T05:49:20;15.80;99.90
11812;DHT22;5963;50.184;9.162;2023-05-23T05:51:51;15.80;99.90
11812;DHT22;5963;50.184;9.162;2023-05-23T05:54:21;15.80;99.90
11812;DHT22;5963;50.184;9.162;2023-05-23T05:56:51;15.70;99.90
11812;DHT22;5963;50.184;9.162;2023-05-23T05:59:20;15.70;99.90
11812;DHT22;5963;50.184;9.162;2023-05-23T06:01:52;15.70;99.90
11812;DHT22;5963;50.184;9.162;2023-05-23T06:04:21;15.70;99.90
11812;DHT22;5963;50.184;9.162;2023-05-23T06:06:51;15.60;99.90
11812;DHT22;5963;50.184;9.162;2023-05-23T06:09:21;15.50;99.90
11812;DHT22;5963;50.184;9.162;2023-05-23T06:11:51;15.60;99.90
11812;DHT22;5963;50.184;9.162;2023-05-23T06:14:20;15.60;99.90
11812;DHT22;5963;50.184;9.162;2023-05-23T06:16:52;15.70;99.90
11812;DHT22;5963;50.184;9.162;2023-05-23T06:19:22;15.70;99.90
11812;DHT22;5963;50.184;9.162;2023-05-23T06:21:52;15.80;99.90
11812;DHT22;5963;50.184;9.162;2023-05-23T06:24:22;15.70;99.90
11812;DHT22;5963;50.184;9.162;2023-05-23T06:26:51;15.70;99.90
11812;DHT22;5963;50.184;9.162;2023-05-23T06:29:21;15.70;99.90
11812;DHT22;5963;50.184;9.162;2023-05-23T06:31:52;15.70;99.90
11812;DHT22;5963;50.184;9.162;2023-05-23T06:34:22;15.60;99.90
11812;DHT22;5963;50.184;9.162;2023-05-23T06:36:52;15.70;99.90
11812;DHT22;5963;50.184;9.162;2023-05-23T06:39:22;15.70;99.90
11812;DHT22;5963;50.184;9.162;2023-05-23T06:41:52;15.70;99.90
11812;DHT22;5963;50.184;9.162;2023-05-23T06:44:22;15.70;99.90
11812;DHT22;5963;50.184;9.162;2023-05-23T06:46:53;15.80;99.90
11812;DHT22;5963;50.184;9.162;2023-05-23T06:49:24;15.80;99.90
11812;DHT22;5963;50.184;9.162;2023-05-23T06:51:54;15.60;99.90
11812;DHT22;5963;50.184;9.162;2023-05-23T06:54:24;15.70;99.90
11812;DHT22;5963;50.184;9.162;2023-05-23T06:56:54;15.70;99.90
11812;DHT22;5963;50.184;9.162;2023-05-23T06:59:24;15.80;99.90
11812;DHT22;5963;50.184;9.162;2023-05-23T07:01:56;15.70;99.90
11812;DHT22;5963;50.184;9.162;2023-05-23T07:04:25;15.60;99.90
11812;DHT22;5963;50.184;9.162;2023-05-23T07:06:55;15.80;99.90
11812;DHT22;5963;50.184;9.162;2023-05-23T07:09:25;16.10;99.90
11812;DHT22;5963;50.184;9.162;2023-05-23T07:11:55;16.30;99.90
11812;DHT22;5963;50.184;9.162;2023-05-23T07:14:25;16.50;99.90
11812;DHT22;5963;50.184;9.162;2023-05-23T07:16:54;16.70;99.90
11812;DHT22;5963;50.184;9.162;2023-05-23T07:19:24;16.70;99.90
11812;DHT22;5963;50.184;9.162;2023-05-23T07:21:54;16.90;99.90
11812;DHT22;5963;50.184;9.162;2023-05-23T07:24:24;17.00;99.90
11812;DHT22;5963;50.184;9.162;2023-05-23T07:26:54;17.00;99.90
11812;DHT22;5963;50.184;9.162;2023-05-23T07:29:23;17.30;99.90
11812;DHT22;5963;50.184;9.162;2023-05-23T07:31:53;17.30;99.90
11812;DHT22;5963;50.184;9.162;2023-05-23T07:34:25;17.50;99.90
11812;DHT22;5963;50.184;9.162;2023-05-23T07:36:55;17.30;99.90
11812;DHT22;5963;50.184;9.162;2023-05-23T07:39:25;17.30;99.90
11812;DHT22;5963;50.184;9.162;2023-05-23T07:41:55;17.50;99.90
11812;DHT22;5963;50.184;9.162;2023-05-23T07:44:25;17.40;99.90
11812;DHT22;5963;50.184;9.162;2023-05-23T07:46:55;17.40;99.90
11812;DHT22;5963;50.184;9.162;2023-05-23T07:49:26;17.20;99.90
11812;DHT22;5963;50.184;9.162;2023-05-23T07:51:56;17.10;99.90
11812;DHT22;5963;50.184;9.162;2023-05-23T07:54:26;17.20;99.90
11812;DHT22;5963;50.184;9.162;2023-05-23T07:56:56;17.20;99.90
11812;DHT22;5963;50.184;9.162;2023-05-23T07:59:25;17.10;99.90
11812;DHT22;5963;50.184;9.162;2023-05-23T08:01:57;16.90;99.90
11812;DHT22;5963;50.184;9.162;2023-05-23T08:04:29;16.80;99.90
11812;DHT22;5963;50.184;9.162;2023-05-23T08:07:00;16.70;99.90
11812;DHT22;5963;50.184;9.162;2023-05-23T08:09:33;16.60;99.90
11812;DHT22;5963;50.184;9.162;2023-05-23T08:12:03;16.60;99.90
11812;DHT22;5963;50.184;9.162;2023-05-23T08:14:33;16.50;99.90
11812;DHT22;5963;50.184;9.162;2023-05-23T08:17:17;16.50;99.90
11812;DHT22;5963;50.184;9.162;2023-05-23T08:19:49;16.50;99.90
11812;DHT22;5963;50.184;9.162;2023-05-23T08:22:19;16.60;99.90
11812;DHT22;5963;50.184;9.162;2023-05-23T08:24:49;16.60;99.90
11812;DHT22;5963;50.184;9.162;2023-05-23T08:27:19;16.70;99.90
11812;DHT22;5963;50.184;9.162;2023-05-23T08:29:49;16.70;99.90
11812;DHT22;5963;50.184;9.162;2023-05-23T08:32:20;16.90;99.90
11812;DHT22;5963;50.184;9.162;2023-05-23T08:34:51;16.90;99.90
11812;DHT22;5963;50.184;9.162;2023-05-23T08:37:21;16.90;99.90
11812;DHT22;5963;50.184;9.162;2023-05-23T08:39:52;17.00;99.90
11812;DHT22;5963;50.184;9.162;2023-05-23T08:42:22;16.90;99.90
11812;DHT22;5963;50.184;9.162;2023-05-23T08:44:52;17.00;99.90
11812;DHT22;5963;50.184;9.162;2023-05-23T08:47:22;17.10;99.90
11812;DHT22;5963;50.184;9.162;2023-05-23T08:49:56;17.20;99.90
11812;DHT22;5963;50.184;9.162;2023-05-23T08:52:28;17.30;99.90
11812;DHT22;5963;50.184;9.162;2023-05-23T08:54:59;17.50;99.90
11812;DHT22;5963;50.184;9.162;2023-05-23T08:57:29;17.70;99.90
11812;DHT22;5963;50.184;9.162;2023-05-23T08:59:59;18.00;99.90
11812;DHT22;5963;50.184;9.162;2023-05-23T09:02:29;18.00;99.90
11812;DHT22;5963;50.184;9.162;2023-05-23T09:05:01;17.90;99.90
11812;DHT22;5963;50.184;9.162;2023-05-23T09:07:32;17.80;99.90
11812;DHT22;5963;50.184;9.162;2023-05-23T09:10:03;17.70;99.90
11812;DHT22;5963;50.184;9.162;2023-05-23T09:12:34;17.80;99.90
11812;DHT22;5963;50.184;9.162;2023-05-23T09:15:06;17.80;99.90
11812;DHT22;5963;50.184;9.162;2023-05-23T09:17:37;17.90;99.90
11812;DHT22;5963;50.184;9.162;2023-05-23T09:20:13;17.90;99.90
11812;DHT22;5963;50.184;9.162;2023-05-23T09:22:46;18.10;99.90
11812;DHT22;5963;50.184;9.162;2023-05-23T09:25:16;18.30;99.90
11812;DHT22;5963;50.184;9.162;2023-05-23T09:27:46;18.40;99.90
11812;DHT22;5963;50.184;9.162;2023-05-23T09:30:17;18.50;99.90
11812;DHT22;5963;50.184;9.162;2023-05-23T09:32:59;18.40;99.90
11812;DHT22;5963;50.184;9.162;2023-05-23T09:35:34;18.50;99.90
11812;DHT22;5963;50.184;9.162;2023-05-23T09:38:04;18.70;99.90
11812;DHT22;5963;50.184;9.162;2023-05-23T09:40:36;18.80;99.90
11812;DHT22;5963;50.184;9.162;2023-05-23T09:43:06;18.90;99.90
11812;DHT22;5963;50.184;9.162;2023-05-23T09:45:35;18.90;99.90
11812;DHT22;5963;50.184;9.162;2023-05-23T09:48:06;18.90;99.90
11812;DHT22;5963;50.184;9.162;2023-05-23T09:50:44;18.80;99.90
11812;DHT22;5963;50.184;9.162;2023-05-23T09:53:14;18.60;99.90
11812;DHT22;5963;50.184;9.162;2023-05-23T09:55:44;18.60;99.90
11812;DHT22;5963;50.184;9.162;2023-05-23T09:58:14;18.50;99.90
11812;DHT22;5963;50.184;9.162;2023-05-23T10:00:47;18.30;99.90
11812;DHT22;5963;50.184;9.162;2023-05-23T10:03:21;18.20;99.90
11812;DHT22;5963;50.184;9.162;2023-05-23T10:05:59;18.10;99.90
11812;DHT22;5963;50.184;9.162;2023-05-23T10:08:33;17.90;99.90
11812;DHT22;5963;50.184;9.162;2023-05-23T10:14:18;17.60;99.90
11812;DHT22;5963;50.184;9.162;2023-05-23T10:16:54;17.50;99.90
11812;DHT22;5963;50.184;9.162;2023-05-23T10:19:34;17.50;99.90
11812;DHT22;5963;50.184;9.162;2023-05-23T10:22:11;17.50;99.90
11812;DHT22;5963;50.184;9.162;2023-05-23T10:24:41;17.50;99.90
11812;DHT22;5963;50.184;9.162;2023-05-23T10:27:13;17.60;99.90
11812;DHT22;5963;50.184;9.162;2023-05-23T10:29:44;17.50;99.90
11812;DHT22;5963;50.184;9.162;2023-05-23T10:32:15;17.50;99.90
11812;DHT22;5963;50.184;9.162;2023-05-23T10:34:50;17.50;99.90
11812;DHT22;5963;50.184;9.162;2023-05-23T10:37:32;17.60;99.90
11812;DHT22;5963;50.184;9.162;2023-05-23T10:40:10;17.60;99.90
11812;DHT22;5963;50.184;9.162;2023-05-23T10:42:48;17.70;99.90
11812;DHT22;5963;50.184;9.162;2023-05-23T10:45:19;17.70;99.90
11812;DHT22;5963;50.184;9.162;2023-05-23T10:47:50;17.80;99.90
11812;DHT22;5963;50.184;9.162;2023-05-23T10:50:34;17.90;99.90
11812;DHT22;5963;50.184;9.162;2023-05-23T10:53:07;18.10;99.90
11812;DHT22;5963;50.184;9.162;2023-05-23T10:55:38;18.20;99.90
11812;DHT22;5963;50.184;9.162;2023-05-23T10:58:14;18.20;99.90
11812;DHT22;5963;50.184;9.162;2023-05-23T11:00:50;18.10;99.90
11812;DHT22;5963;50.184;9.162;2023-05-23T11:03:30;18.10;99.90
11812;DHT22;5963;50.184;9.162;2023-05-23T11:06:01;17.90;99.90
11812;DHT22;5963;50.184;9.162;2023-05-23T11:08:40;17.90;99.90
11812;DHT22;5963;50.184;9.162;2023-05-23T11:11:16;17.80;99.90
11812;DHT22;5963;50.184;9.162;2023-05-23T11:13:58;17.80;99.90
11812;DHT22;5963;50.184;9.162;2023-05-23T11:16:39;17.70;99.90
11812;DHT22;5963;50.184;9.162;2023-05-23T11:19:26;17.60;99.90
11812;DHT22;5963;50.184;9.162;2023-05-23T11:21:57;17.60;99.90
11812;DHT22;5963;50.184;9.162;2023-05-23T11:24:48;17.50;99.90
11812;DHT22;5963;50.184;9.162;2023-05-23T11:27:24;17.50;99.90
11812;DHT22;5963;50.184;9.162;2023-05-23T11:29:57;17.50;99.90
11812;DHT22;5963;50.184;9.162;2023-05-23T11:32:29;17.70;99.90
11812;DHT22;5963;50.184;9.162;2023-05-23T11:35:03;17.80;99.90
11812;DHT22;5963;50.184;9.162;2023-05-23T11:37:33;17.80;99.90
11812;DHT22;5963;50.184;9.162;2023-05-23T11:40:28;17.80;99.90
11812;DHT22;5963;50.184;9.162;2023-05-23T11:42:59;17.80;99.90
11812;DHT22;5963;50.184;9.162;2023-05-23T11:45:30;17.60;99.90
11812;DHT22;5963;50.184;9.162;2023-05-23T11:48:04;17.60;99.90
11812;DHT22;5963;50.184;9.162;2023-05-23T11:50:34;17.50;99.90
11812;DHT22;5963;50.184;9.162;2023-05-23T11:53:11;17.50;99.90
11812;DHT22;5963;50.184;9.162;2023-05-23T11:55:49;17.50;99.90
11812;DHT22;5963;50.184;9.162;2023-05-23T11:58:19;17.60;99.90
11812;DHT22;5963;50.184;9.162;2023-05-23T12:00:49;17.70;99.90
11812;DHT22;5963;50.184;9.162;2023-05-23T12:03:22;17.70;99.90
11812;DHT22;5963;50.184;9.162;2023-05-23T12:05:52;17.80;99.90
11812;DHT22;5963;50.184;9.162;2023-05-23T12:08:23;17.90;99.90
11812;DHT22;5963;50.184;9.162;2023-05-23T12:10:57;18.00;99.90
11812;DHT22;5963;50.184;9.162;2023-05-23T12:13:29;18.00;99.90
11812;DHT22;5963;50.184;9.162;2023-05-23T12:16:01;18.10;99.90
11812;DHT22;5963;50.184;9.162;2023-05-23T12:18:33;18.30;99.90
11812;DHT22;5963;50.184;9.162;2023-05-23T12:21:04;18.60;99.90
11812;DHT22;5963;50.184;9.162;2023-05-23T12:23:36;18.80;99.90
11812;DHT22;5963;50.184;9.162;2023-05-23T12:26:07;19.00;99.90
11812;DHT22;5963;50.184;9.162;2023-05-23T12:28:39;18.80;99.90
11812;DHT22;5963;50.184;9.162;2023-05-23T12:31:10;18.70;99.90
11812;DHT22;5963;50.184;9.162;2023-05-23T12:33:41;18.50;99.90
11812;DHT22;5963;50.184;9.162;2023-05-23T12:36:12;18.50;99.90
11812;DHT22;5963;50.184;9.162;2023-05-23T12:38:43;18.60;99.90
11812;DHT22;5963;50.184;9.162;2023-05-23T12:41:17;18.80;99.90
11812;DHT22;5963;50.184;9.162;2023-05-23T12:43:51;19.00;99.90
11812;DHT22;5963;50.184;9.162;2023-05-23T12:46:22;19.20;99.90
11812;DHT22;5963;50.184;9.162;2023-05-23T12:48:52;19.40;99.90
11812;DHT22;5963;50.184;9.162;2023-05-23T12:51:22;19.50;99.90
11812;DHT22;5963;50.184;9.162;2023-05-23T12:53:52;19.60;99.90
11812;DHT22;5963;50.184;9.162;2023-05-23T12:56:24;19.60;99.90
11812;DHT22;5963;50.184;9.162;2023-05-23T12:58:54;19.60;99.90
11812;DHT22;5963;50.184;9.162;2023-05-23T13:01:24;19.70;99.90
11812;DHT22;5963;50.184;9.162;2023-05-23T13:03:54;19.70;99.90
11812;DHT22;5963;50.184;9.162;2023-05-23T13:06:24;19.50;99.90
11812;DHT22;5963;50.184;9.162;2023-05-23T13:08:53;19.30;99.90
11812;DHT22;5963;50.184;9.162;2023-05-23T13:11:26;19.10;99.90
11812;DHT22;5963;50.184;9.162;2023-05-23T13:13:56;19.00;99.90
11812;DHT22;5963;50.184;9.162;2023-05-23T13:16:26;18.90;99.90
11812;DHT22;5963;50.184;9.162;2023-05-23T13:18:56;18.90;99.90
11812;DHT22;5963;50.184;9.162;2023-05-23T13:21:25;18.90;99.90
11812;DHT22;5963;50.184;9.162;2023-05-23T13:23:55;19.10;99.90
11812;DHT22;5963;50.184;9.162;2023-05-23T13:26:27;19.00;99.90
11812;DHT22;5963;50.184;9.162;2023-05-23T13:28:57;18.80;99.90
11812;DHT22;5963;50.184;9.162;2023-05-23T13:31:26;18.70;99.90
11812;DHT22;5963;50.184;9.162;2023-05-23T13:33:56;18.60;99.90
11812;DHT22;5963;50.184;9.162;2023-05-23T13:36:26;18.50;99.90
11812;DHT22;5963;50.184;9.162;2023-05-23T13:38:57;18.40;99.90
11812;DHT22;5963;50.184;9.162;2023-05-23T13:41:28;18.30;99.90
11812;DHT22;5963;50.184;9.162;2023-05-23T13:43:58;18.40;99.90
11812;DHT22;5963;50.184;9.162;2023-05-23T13:46:28;18.40;99.90
11812;DHT22;5963;50.184;9.162;2023-05-23T13:48:58;18.40;99.90
11812;DHT22;5963;50.184;9.162;2023-05-23T13:51:28;18.50;99.90
11812;DHT22;5963;50.184;9.162;2023-05-23T13:53:59;18.40;99.90
11812;DHT22;5963;50.184;9.162;2023-05-23T13:56:31;18.40;99.90
11812;DHT22;5963;50.184;9.162;2023-05-23T13:59:01;18.40;99.90
11812;DHT22;5963;50.184;9.162;2023-05-23T14:01:31;18.30;99.90
11812;DHT22;5963;50.184;9.162;2023-05-23T14:04:01;18.20;99.90
11812;DHT22;5963;50.184;9.162;2023-05-23T14:06:34;18.30;99.90
11812;DHT22;5963;50.184;9.162;2023-05-23T14:09:04;18.30;99.90
11812;DHT22;5963;50.184;9.162;2023-05-23T14:11:35;18.20;99.90
11812;DHT22;5963;50.184;9.162;2023-05-23T14:14:05;18.30;99.90
11812;DHT22;5963;50.184;9.162;2023-05-23T14:16:35;18.50;99.90
11812;DHT22;5963;50.184;9.162;2023-05-23T14:19:05;18.60;99.90
11812;DHT22;5963;50.184;9.162;2023-05-23T14:21:35;18.70;99.90
11812;DHT22;5963;50.184;9.162;2023-05-23T14:24:07;18.60;99.90
11812;DHT22;5963;50.184;9.162;2023-05-23T14:26:37;18.40;99.90
11812;DHT22;5963;50.184;9.162;2023-05-23T14:29:09;18.50;99.90
11812;DHT22;5963;50.184;9.162;2023-05-23T14:31:39;18.40;99.90
11812;DHT22;5963;50.184;9.162;2023-05-23T14:34:09;18.50;99.90
11812;DHT22;5963;50.184;9.162;2023-05-23T14:36:40;18.40;99.90
11812;DHT22;5963;50.184;9.162;2023-05-23T14:39:09;18.30;99.90
11812;DHT22;5963;50.184;9.162;2023-05-23T14:41:41;18.30;99.90
11812;DHT22;5963;50.184;9.162;2023-05-23T14:44:11;18.40;99.90
11812;DHT22;5963;50.184;9.162;2023-05-23T14:46:41;18.30;99.90
11812;DHT22;5963;50.184;9.162;2023-05-23T14:49:16;18.30;99.90
11812;DHT22;5963;50.184;9.162;2023-05-23T14:51:46;18.20;99.90
11812;DHT22;5963;50.184;9.162;2023-05-23T14:54:19;18.10;99.90
11812;DHT22;5963;50.184;9.162;2023-05-23T14:56:50;18.00;99.90
11812;DHT22;5963;50.184;9.162;2023-05-23T14:59:21;17.90;99.90
11812;DHT22;5963;50.184;9.162;2023-05-23T15:01:51;17.90;99.90
11812;DHT22;5963;50.184;9.162;2023-05-23T15:04:21;17.90;99.90
11812;DHT22;5963;50.184;9.162;2023-05-23T15:06:52;18.00;99.90
11812;DHT22;5963;50.184;9.162;2023-05-23T15:09:22;17.90;99.90
11812;DHT22;5963;50.184;9.162;2023-05-23T15:11:53;17.90;99.90
11812;DHT22;5963;50.184;9.162;2023-05-23T15:14:23;18.00;99.90
11812;DHT22;5963;50.184;9.162;2023-05-23T15:16:57;18.00;99.90
11812;DHT22;5963;50.184;9.162;2023-05-23T15:19:35;18.20;99.90
11812;DHT22;5963;50.184;9.162;2023-05-23T15:22:06;18.20;99.90
11812;DHT22;5963;50.184;9.162;2023-05-23T15:24:46;18.40;99.90
11812;DHT22;5963;50.184;9.162;2023-05-23T15:27:17;18.50;99.90
11812;DHT22;5963;50.184;9.162;2023-05-23T15:29:49;18.70;99.90
11812;DHT22;5963;50.184;9.162;2023-05-23T15:32:18;18.70;99.90
11812;DHT22;5963;50.184;9.162;2023-05-23T15:34:48;18.80;99.90
11812;DHT22;5963;50.184;9.162;2023-05-23T15:37:18;18.90;99.90
11812;DHT22;5963;50.184;9.162;2023-05-23T15:39:48;18.90;99.90
11812;DHT22;5963;50.184;9.162;2023-05-23T15:42:19;18.90;99.90
11812;DHT22;5963;50.184;9.162;2023-05-23T15:44:49;18.90;99.90
11812;DHT22;5963;50.184;9.162;2023-05-23T15:47:19;19.10;99.90
11812;DHT22;5963;50.184;9.162;2023-05-23T15:49:49;18.90;99.90
11812;DHT22;5963;50.184;9.162;2023-05-23T15:52:18;18.80;99.90
11812;DHT22;5963;50.184;9.162;2023-05-23T15:54:48;18.90;99.90
11812;DHT22;5963;50.184;9.162;2023-05-23T15:57:19;18.90;99.90
11812;DHT22;5963;50.184;9.162;2023-05-23T15:59:49;18.90;99.90
11812;DHT22;5963;50.184;9.162;2023-05-23T16:02:19;19.00;99.90
11812;DHT22;5963;50.184;9.162;2023-05-23T16:04:49;19.00;99.90
11812;DHT22;5963;50.184;9.162;2023-05-23T16:07:19;18.90;99.90
11812;DHT22;5963;50.184;9.162;2023-05-23T16:09:49;18.90;99.90
11812;DHT22;5963;50.184;9.162;2023-05-23T16:12:20;19.00;99.90
11812;DHT22;5963;50.184;9.162;2023-05-23T16:14:50;18.90;99.90
11812;DHT22;5963;50.184;9.162;2023-05-23T16:17:20;18.80;99.90
11812;DHT22;5963;50.184;9.162;2023-05-23T16:19:50;18.60;99.90